N511KG KJQF-KHEF
Flight info
| Callsign | N511KG |
|---|---|
| Flight time | 1h 24m |
| Altitude | 11000 |
| Route | DCT |
| Aircraft | C208/L-SDFGR/C |
Departure
| Time | 2026-04-19 01:08 |
|---|---|
| Airport | Concord-Padgett Regional Airport (KJQF) |
Arrival
| Time | 2026-04-19 02:32 |
|---|---|
| Airport | Manassas Regional Airport/Harry P. Davis Field (KHEF) |
| Time | Latitude | Longitude | Altitude | Speed | Heading |
|---|---|---|---|---|---|
| 2026-04-19 00:47 | 35.38551 | -80.71185 | 666 ft | 0 kts | 280° |
| 2026-04-19 01:01 | 35.38569 | -80.71203 | 666 ft | 9 kts | 359° |
| 2026-04-19 01:02 | 35.38671 | -80.71182 | 666 ft | 18 kts | 11° |
| 2026-04-19 01:02 | 35.38727 | -80.71130 | 666 ft | 12 kts | 102° |
| 2026-04-19 01:02 | 35.38767 | -80.71053 | 666 ft | 17 kts | 12° |
| 2026-04-19 01:02 | 35.38898 | -80.71023 | 667 ft | 22 kts | 10° |
| 2026-04-19 01:03 | 35.39050 | -80.70989 | 668 ft | 22 kts | 11° |
| 2026-04-19 01:03 | 35.39198 | -80.70956 | 669 ft | 22 kts | 9° |
| 2026-04-19 01:03 | 35.39355 | -80.70921 | 666 ft | 21 kts | 10° |
| 2026-04-19 01:03 | 35.39471 | -80.70894 | 667 ft | 15 kts | 9° |
| 2026-04-19 01:04 | 35.39562 | -80.70874 | 668 ft | 16 kts | 9° |
| 2026-04-19 01:04 | 35.39687 | -80.70844 | 666 ft | 18 kts | 9° |
| 2026-04-19 01:04 | 35.39772 | -80.70825 | 665 ft | 3 kts | 22° |
| 2026-04-19 01:04 | 35.39785 | -80.70797 | 664 ft | 0 kts | 95° |
| 2026-04-19 01:05 | 35.39783 | -80.70783 | 664 ft | 7 kts | 100° |
| 2026-04-19 01:05 | 35.39762 | -80.70704 | 663 ft | 11 kts | 141° |
| 2026-04-19 01:05 | 35.39742 | -80.70697 | 663 ft | 0 kts | 189° |
| 2026-04-19 01:06 | 35.39737 | -80.70698 | 663 ft | 9 kts | 191° |
| 2026-04-19 01:07 | 35.39478 | -80.70756 | 663 ft | 64 kts | 191° |
| 2026-04-19 01:07 | 35.38934 | -80.70868 | 770 ft | 89 kts | 192° |
| 2026-04-19 01:07 | 35.38262 | -80.71015 | 949 ft | 106 kts | 192° |
| 2026-04-19 01:07 | 35.37535 | -80.71208 | 1283 ft | 107 kts | 206° |
| 2026-04-19 01:08 | 35.37037 | -80.71841 | 1614 ft | 107 kts | 251° |
| 2026-04-19 01:08 | 35.37010 | -80.72751 | 1952 ft | 107 kts | 264° |
| 2026-04-19 01:08 | 35.37021 | -80.73672 | 2279 ft | 110 kts | 264° |
| 2026-04-19 01:08 | 35.37047 | -80.74613 | 2626 ft | 110 kts | 264° |
| 2026-04-19 01:09 | 35.37076 | -80.75537 | 2990 ft | 109 kts | 265° |
| 2026-04-19 01:09 | 35.37400 | -80.76397 | 3327 ft | 126 kts | 312° |
| 2026-04-19 01:09 | 35.38310 | -80.76572 | 3658 ft | 146 kts | 11° |
| 2026-04-19 01:09 | 35.39086 | -80.75774 | 4005 ft | 149 kts | 58° |
| 2026-04-19 01:10 | 35.39616 | -80.74705 | 4373 ft | 145 kts | 59° |
| 2026-04-19 01:10 | 35.40154 | -80.73681 | 4745 ft | 142 kts | 47° |
| 2026-04-19 01:10 | 35.40955 | -80.73016 | 5059 ft | 140 kts | 27° |
| 2026-04-19 01:10 | 35.41774 | -80.72338 | 5348 ft | 144 kts | 33° |
| 2026-04-19 01:11 | 35.42586 | -80.71608 | 5644 ft | 146 kts | 34° |
| 2026-04-19 01:11 | 35.43407 | -80.70857 | 5939 ft | 148 kts | 34° |
| 2026-04-19 01:11 | 35.44233 | -80.70100 | 6239 ft | 149 kts | 34° |
| 2026-04-19 01:11 | 35.45053 | -80.69345 | 6526 ft | 150 kts | 34° |
| 2026-04-19 01:12 | 35.45891 | -80.68575 | 6811 ft | 151 kts | 34° |
| 2026-04-19 01:12 | 35.46732 | -80.67800 | 7103 ft | 151 kts | 34° |
| 2026-04-19 01:12 | 35.47575 | -80.67024 | 7383 ft | 152 kts | 34° |
| 2026-04-19 01:12 | 35.48425 | -80.66243 | 7671 ft | 153 kts | 34° |
| 2026-04-19 01:13 | 35.49273 | -80.65460 | 7959 ft | 152 kts | 33° |
| 2026-04-19 01:13 | 35.50118 | -80.64682 | 8250 ft | 152 kts | 33° |
| 2026-04-19 01:13 | 35.50964 | -80.63903 | 8547 ft | 152 kts | 33° |
| 2026-04-19 01:13 | 35.51808 | -80.63125 | 8844 ft | 152 kts | 33° |
| 2026-04-19 01:14 | 35.52654 | -80.62346 | 9122 ft | 152 kts | 33° |
| 2026-04-19 01:14 | 35.53499 | -80.61565 | 9427 ft | 152 kts | 33° |
| 2026-04-19 01:14 | 35.54343 | -80.60787 | 9734 ft | 151 kts | 32° |
| 2026-04-19 01:14 | 35.55183 | -80.60011 | 10018 ft | 151 kts | 32° |
| 2026-04-19 01:15 | 35.56020 | -80.59239 | 10292 ft | 150 kts | 32° |
| 2026-04-19 01:15 | 35.56845 | -80.58478 | 10565 ft | 150 kts | 32° |
| 2026-04-19 01:15 | 35.57680 | -80.57705 | 10842 ft | 150 kts | 31° |
| 2026-04-19 01:15 | 35.58527 | -80.56929 | 11027 ft | 158 kts | 31° |
| 2026-04-19 01:16 | 35.59464 | -80.56068 | 11045 ft | 177 kts | 32° |
| 2026-04-19 01:16 | 35.60482 | -80.55122 | 11045 ft | 189 kts | 33° |
| 2026-04-19 01:16 | 35.61547 | -80.54134 | 11050 ft | 195 kts | 32° |
| 2026-04-19 01:16 | 35.62641 | -80.53122 | 11043 ft | 199 kts | 32° |
| 2026-04-19 01:17 | 35.63753 | -80.52094 | 11045 ft | 201 kts | 32° |
| 2026-04-19 01:17 | 35.64877 | -80.51054 | 11045 ft | 203 kts | 33° |
| 2026-04-19 01:17 | 35.66009 | -80.50006 | 11036 ft | 204 kts | 33° |
| 2026-04-19 01:17 | 35.67130 | -80.48968 | 11043 ft | 205 kts | 33° |
| 2026-04-19 01:18 | 35.68284 | -80.47898 | 11047 ft | 205 kts | 33° |
| 2026-04-19 01:18 | 35.69408 | -80.46859 | 11047 ft | 205 kts | 33° |
| 2026-04-19 01:18 | 35.70549 | -80.45799 | 11044 ft | 206 kts | 33° |
| 2026-04-19 01:18 | 35.71689 | -80.44743 | 11037 ft | 205 kts | 33° |
| 2026-04-19 01:19 | 35.72825 | -80.43689 | 11039 ft | 204 kts | 32° |
| 2026-04-19 01:19 | 35.73959 | -80.42640 | 11045 ft | 204 kts | 33° |
| 2026-04-19 01:19 | 35.74709 | -80.41943 | 11041 ft | 204 kts | 33° |
| 2026-04-19 01:19 | 35.76221 | -80.40539 | 11039 ft | 204 kts | 33° |
| 2026-04-19 01:20 | 35.76970 | -80.39843 | 11033 ft | 203 kts | 33° |
| 2026-04-19 01:20 | 35.78099 | -80.38794 | 11034 ft | 203 kts | 33° |
| 2026-04-19 01:20 | 35.79225 | -80.37748 | 11040 ft | 203 kts | 33° |
| 2026-04-19 01:20 | 35.80354 | -80.36698 | 11039 ft | 203 kts | 33° |
| 2026-04-19 01:21 | 35.81850 | -80.35306 | 11040 ft | 203 kts | 33° |
| 2026-04-19 01:21 | 35.82611 | -80.34598 | 11034 ft | 203 kts | 33° |
| 2026-04-19 01:21 | 35.83739 | -80.33549 | 11037 ft | 203 kts | 33° |
| 2026-04-19 01:21 | 35.84867 | -80.32498 | 11038 ft | 203 kts | 33° |
| 2026-04-19 01:22 | 35.85979 | -80.31462 | 11032 ft | 203 kts | 33° |
| 2026-04-19 01:22 | 35.87105 | -80.30413 | 11029 ft | 203 kts | 33° |
| 2026-04-19 01:22 | 35.88233 | -80.29361 | 11023 ft | 203 kts | 33° |
| 2026-04-19 01:22 | 35.89362 | -80.28309 | 11028 ft | 204 kts | 33° |
| 2026-04-19 01:23 | 35.90493 | -80.27254 | 11019 ft | 204 kts | 33° |
| 2026-04-19 01:23 | 35.91624 | -80.26199 | 11025 ft | 204 kts | 33° |
| 2026-04-19 01:23 | 35.92755 | -80.25142 | 11025 ft | 204 kts | 33° |
| 2026-04-19 01:23 | 35.93887 | -80.24086 | 11021 ft | 204 kts | 33° |
| 2026-04-19 01:24 | 35.95018 | -80.23028 | 11028 ft | 204 kts | 33° |
| 2026-04-19 01:24 | 35.96150 | -80.21971 | 11019 ft | 204 kts | 33° |
| 2026-04-19 01:24 | 35.97266 | -80.20927 | 11020 ft | 204 kts | 33° |
| 2026-04-19 01:24 | 35.98397 | -80.19870 | 11019 ft | 204 kts | 33° |
| 2026-04-19 01:25 | 35.99530 | -80.18811 | 11021 ft | 204 kts | 33° |
| 2026-04-19 01:25 | 36.00662 | -80.17751 | 11021 ft | 204 kts | 33° |
| 2026-04-19 01:25 | 36.01793 | -80.16691 | 11021 ft | 204 kts | 33° |
| 2026-04-19 01:25 | 36.02922 | -80.15633 | 11016 ft | 204 kts | 33° |
| 2026-04-19 01:26 | 36.04053 | -80.14575 | 11018 ft | 204 kts | 33° |
| 2026-04-19 01:26 | 36.05184 | -80.13515 | 11019 ft | 204 kts | 33° |
| 2026-04-19 01:26 | 36.06315 | -80.12454 | 11017 ft | 204 kts | 33° |
| 2026-04-19 01:26 | 36.07446 | -80.11393 | 11019 ft | 204 kts | 33° |
| 2026-04-19 01:27 | 36.08576 | -80.10332 | 11016 ft | 204 kts | 33° |
| 2026-04-19 01:27 | 36.09691 | -80.09286 | 11027 ft | 204 kts | 33° |
| 2026-04-19 01:27 | 36.10823 | -80.08223 | 11025 ft | 204 kts | 33° |
| 2026-04-19 01:27 | 36.11956 | -80.07158 | 11020 ft | 205 kts | 33° |
| 2026-04-19 01:28 | 36.13090 | -80.06094 | 11027 ft | 205 kts | 33° |
| 2026-04-19 01:28 | 36.14220 | -80.05030 | 11022 ft | 205 kts | 33° |
| 2026-04-19 01:28 | 36.15356 | -80.03961 | 11025 ft | 205 kts | 33° |
| 2026-04-19 01:28 | 36.16488 | -80.02898 | 11025 ft | 205 kts | 33° |
| 2026-04-19 01:29 | 36.17620 | -80.01831 | 11024 ft | 204 kts | 33° |
| 2026-04-19 01:29 | 36.18752 | -80.00767 | 11021 ft | 204 kts | 33° |
| 2026-04-19 01:29 | 36.19867 | -79.99716 | 11017 ft | 204 kts | 33° |
| 2026-04-19 01:29 | 36.20998 | -79.98651 | 11019 ft | 204 kts | 33° |
| 2026-04-19 01:30 | 36.22129 | -79.97586 | 11020 ft | 204 kts | 33° |
| 2026-04-19 01:30 | 36.23261 | -79.96517 | 11019 ft | 205 kts | 33° |
| 2026-04-19 01:30 | 36.24394 | -79.95448 | 11014 ft | 205 kts | 33° |
| 2026-04-19 01:30 | 36.25527 | -79.94379 | 11012 ft | 205 kts | 33° |
| 2026-04-19 01:31 | 36.26660 | -79.93310 | 11016 ft | 205 kts | 33° |
| 2026-04-19 01:31 | 36.27793 | -79.92240 | 11006 ft | 205 kts | 33° |
| 2026-04-19 01:31 | 36.28910 | -79.91184 | 11009 ft | 205 kts | 33° |
| 2026-04-19 01:31 | 36.30058 | -79.90100 | 11008 ft | 205 kts | 33° |
| 2026-04-19 01:32 | 36.31174 | -79.89045 | 11010 ft | 205 kts | 33° |
| 2026-04-19 01:32 | 36.32307 | -79.87974 | 11019 ft | 205 kts | 33° |
| 2026-04-19 01:32 | 36.33441 | -79.86900 | 11019 ft | 205 kts | 33° |
| 2026-04-19 01:32 | 36.34576 | -79.85827 | 11019 ft | 205 kts | 33° |
| 2026-04-19 01:33 | 36.35710 | -79.84754 | 11019 ft | 205 kts | 33° |
| 2026-04-19 01:33 | 36.36842 | -79.83679 | 11018 ft | 205 kts | 33° |
| 2026-04-19 01:33 | 36.37975 | -79.82606 | 11018 ft | 205 kts | 33° |
| 2026-04-19 01:33 | 36.39108 | -79.81532 | 11017 ft | 205 kts | 33° |
| 2026-04-19 01:34 | 36.40241 | -79.80459 | 11017 ft | 205 kts | 33° |
| 2026-04-19 01:34 | 36.41373 | -79.79385 | 11009 ft | 205 kts | 33° |
| 2026-04-19 01:34 | 36.42505 | -79.78312 | 11010 ft | 205 kts | 33° |
| 2026-04-19 01:34 | 36.43621 | -79.77251 | 11009 ft | 205 kts | 33° |
| 2026-04-19 01:35 | 36.44756 | -79.76173 | 11010 ft | 205 kts | 33° |
| 2026-04-19 01:35 | 36.45889 | -79.75097 | 11010 ft | 205 kts | 33° |
| 2026-04-19 01:35 | 36.47022 | -79.74021 | 11010 ft | 205 kts | 33° |
| 2026-04-19 01:35 | 36.48155 | -79.72944 | 11008 ft | 205 kts | 33° |
| 2026-04-19 01:36 | 36.49287 | -79.71867 | 11007 ft | 205 kts | 33° |
| 2026-04-19 01:36 | 36.50419 | -79.70789 | 11006 ft | 205 kts | 33° |
| 2026-04-19 01:36 | 36.51551 | -79.69712 | 11004 ft | 205 kts | 33° |
| 2026-04-19 01:36 | 36.52684 | -79.68634 | 10982 ft | 205 kts | 33° |
| 2026-04-19 01:37 | 36.53799 | -79.67571 | 10984 ft | 205 kts | 33° |
| 2026-04-19 01:37 | 36.54930 | -79.66494 | 10990 ft | 205 kts | 33° |
| 2026-04-19 01:37 | 36.56059 | -79.65416 | 10990 ft | 204 kts | 33° |
| 2026-04-19 01:37 | 36.57188 | -79.64341 | 10997 ft | 204 kts | 33° |
| 2026-04-19 01:38 | 36.58313 | -79.63268 | 10998 ft | 204 kts | 33° |
| 2026-04-19 01:38 | 36.59440 | -79.62193 | 10995 ft | 204 kts | 33° |
| 2026-04-19 01:38 | 36.60566 | -79.61118 | 10994 ft | 204 kts | 33° |
| 2026-04-19 01:38 | 36.61691 | -79.60043 | 10996 ft | 204 kts | 33° |
| 2026-04-19 01:39 | 36.62818 | -79.58965 | 10995 ft | 204 kts | 33° |
| 2026-04-19 01:39 | 36.63945 | -79.57891 | 10995 ft | 204 kts | 33° |
| 2026-04-19 01:39 | 36.65069 | -79.56814 | 10995 ft | 204 kts | 33° |
| 2026-04-19 01:39 | 36.66194 | -79.55738 | 10995 ft | 204 kts | 33° |
| 2026-04-19 01:40 | 36.67303 | -79.54678 | 10995 ft | 204 kts | 33° |
| 2026-04-19 01:40 | 36.68426 | -79.53602 | 10992 ft | 203 kts | 33° |
| 2026-04-19 01:40 | 36.69548 | -79.52528 | 10992 ft | 203 kts | 33° |
| 2026-04-19 01:40 | 36.70671 | -79.51454 | 10991 ft | 204 kts | 33° |
| 2026-04-19 01:41 | 36.71792 | -79.50379 | 10993 ft | 203 kts | 33° |
| 2026-04-19 01:41 | 36.72913 | -79.49303 | 10993 ft | 204 kts | 33° |
| 2026-04-19 01:41 | 36.74035 | -79.48228 | 10992 ft | 204 kts | 33° |
| 2026-04-19 01:41 | 36.75158 | -79.47150 | 10992 ft | 204 kts | 33° |
| 2026-04-19 01:42 | 36.76282 | -79.46072 | 10990 ft | 204 kts | 33° |
| 2026-04-19 01:42 | 36.77370 | -79.45028 | 11003 ft | 204 kts | 33° |
| 2026-04-19 01:42 | 36.79623 | -79.42862 | 11001 ft | 205 kts | 33° |
| 2026-04-19 01:43 | 36.80751 | -79.41780 | 10995 ft | 205 kts | 33° |
| 2026-04-19 01:43 | 36.81863 | -79.40710 | 10994 ft | 205 kts | 33° |
| 2026-04-19 01:43 | 36.82990 | -79.39625 | 10992 ft | 205 kts | 33° |
| 2026-04-19 01:43 | 36.84118 | -79.38540 | 10991 ft | 205 kts | 33° |
| 2026-04-19 01:44 | 36.85246 | -79.37455 | 10986 ft | 205 kts | 33° |
| 2026-04-19 01:44 | 36.86372 | -79.36369 | 10983 ft | 204 kts | 33° |
| 2026-04-19 01:44 | 36.87496 | -79.35287 | 10981 ft | 205 kts | 33° |
| 2026-04-19 01:44 | 36.88622 | -79.34201 | 10979 ft | 204 kts | 33° |
| 2026-04-19 01:45 | 36.89749 | -79.33117 | 10980 ft | 204 kts | 33° |
| 2026-04-19 01:45 | 36.90874 | -79.32030 | 10978 ft | 205 kts | 33° |
| 2026-04-19 01:45 | 36.92001 | -79.30943 | 10975 ft | 204 kts | 33° |
| 2026-04-19 01:45 | 36.93111 | -79.29872 | 10975 ft | 204 kts | 33° |
| 2026-04-19 01:46 | 36.94236 | -79.28785 | 10976 ft | 204 kts | 33° |
| 2026-04-19 01:46 | 36.95362 | -79.27697 | 10975 ft | 204 kts | 33° |
| 2026-04-19 01:46 | 36.96489 | -79.26609 | 10975 ft | 205 kts | 33° |
| 2026-04-19 01:46 | 36.97615 | -79.25519 | 10974 ft | 205 kts | 33° |
| 2026-04-19 01:47 | 36.98742 | -79.24430 | 10980 ft | 205 kts | 33° |
| 2026-04-19 01:47 | 36.99868 | -79.23341 | 10979 ft | 205 kts | 33° |
| 2026-04-19 01:47 | 37.00995 | -79.22251 | 10979 ft | 205 kts | 33° |
| 2026-04-19 01:47 | 37.02122 | -79.21159 | 10977 ft | 205 kts | 33° |
| 2026-04-19 01:48 | 37.03246 | -79.20072 | 10978 ft | 205 kts | 33° |
| 2026-04-19 01:48 | 37.04372 | -79.18979 | 10978 ft | 205 kts | 33° |
| 2026-04-19 01:48 | 37.05500 | -79.17886 | 10977 ft | 205 kts | 33° |
| 2026-04-19 01:48 | 37.06627 | -79.16794 | 10977 ft | 205 kts | 33° |
| 2026-04-19 01:49 | 37.07755 | -79.15701 | 10974 ft | 205 kts | 33° |
| 2026-04-19 01:49 | 37.08867 | -79.14619 | 10974 ft | 205 kts | 33° |
| 2026-04-19 01:49 | 37.09996 | -79.13523 | 10973 ft | 205 kts | 33° |
| 2026-04-19 01:49 | 37.11121 | -79.12431 | 10975 ft | 205 kts | 33° |
| 2026-04-19 01:50 | 37.12249 | -79.11336 | 10974 ft | 205 kts | 33° |
| 2026-04-19 01:50 | 37.13377 | -79.10240 | 10975 ft | 205 kts | 33° |
| 2026-04-19 01:50 | 37.14505 | -79.09142 | 10974 ft | 205 kts | 33° |
| 2026-04-19 01:50 | 37.15634 | -79.08044 | 10974 ft | 205 kts | 33° |
| 2026-04-19 01:51 | 37.16763 | -79.06946 | 10976 ft | 205 kts | 33° |
| 2026-04-19 01:51 | 37.17890 | -79.05848 | 10975 ft | 205 kts | 33° |
| 2026-04-19 01:51 | 37.19018 | -79.04750 | 10975 ft | 205 kts | 33° |
| 2026-04-19 01:51 | 37.20146 | -79.03651 | 10974 ft | 205 kts | 33° |
| 2026-04-19 01:52 | 37.21260 | -79.02566 | 10982 ft | 206 kts | 33° |
| 2026-04-19 01:52 | 37.22394 | -79.01462 | 10958 ft | 208 kts | 33° |
| 2026-04-19 01:52 | 37.23534 | -79.00348 | 10952 ft | 208 kts | 33° |
| 2026-04-19 01:52 | 37.24673 | -78.99236 | 10952 ft | 207 kts | 33° |
| 2026-04-19 01:53 | 37.25812 | -78.98125 | 10955 ft | 207 kts | 33° |
| 2026-04-19 01:53 | 37.26951 | -78.97012 | 10964 ft | 207 kts | 33° |
| 2026-04-19 01:53 | 37.28090 | -78.95901 | 10963 ft | 207 kts | 33° |
| 2026-04-19 01:53 | 37.29227 | -78.94789 | 10962 ft | 207 kts | 33° |
| 2026-04-19 01:54 | 37.30364 | -78.93677 | 10957 ft | 207 kts | 33° |
| 2026-04-19 01:54 | 37.31497 | -78.92570 | 10957 ft | 207 kts | 33° |
| 2026-04-19 01:54 | 37.32633 | -78.91457 | 10956 ft | 207 kts | 33° |
| 2026-04-19 01:54 | 37.33769 | -78.90346 | 10954 ft | 207 kts | 33° |
| 2026-04-19 01:55 | 37.34904 | -78.89235 | 10954 ft | 207 kts | 33° |
| 2026-04-19 01:55 | 37.36040 | -78.88122 | 10953 ft | 207 kts | 33° |
| 2026-04-19 01:55 | 37.37160 | -78.87024 | 10952 ft | 207 kts | 33° |
| 2026-04-19 01:55 | 37.38296 | -78.85911 | 10947 ft | 207 kts | 33° |
| 2026-04-19 01:56 | 37.39433 | -78.84796 | 10945 ft | 208 kts | 33° |
| 2026-04-19 01:56 | 37.40570 | -78.83678 | 10942 ft | 207 kts | 33° |
| 2026-04-19 01:56 | 37.41708 | -78.82564 | 10941 ft | 207 kts | 33° |
| 2026-04-19 01:56 | 37.42845 | -78.81447 | 10946 ft | 208 kts | 33° |
| 2026-04-19 01:57 | 37.43986 | -78.80327 | 10944 ft | 208 kts | 33° |
| 2026-04-19 01:57 | 37.45128 | -78.79205 | 10939 ft | 208 kts | 33° |
| 2026-04-19 01:57 | 37.46270 | -78.78082 | 10940 ft | 208 kts | 33° |
| 2026-04-19 01:57 | 37.47412 | -78.76958 | 10935 ft | 208 kts | 33° |
| 2026-04-19 01:58 | 37.48541 | -78.75848 | 10933 ft | 209 kts | 33° |
| 2026-04-19 01:58 | 37.49686 | -78.74721 | 10937 ft | 209 kts | 33° |
| 2026-04-19 01:58 | 37.50831 | -78.73593 | 10938 ft | 209 kts | 33° |
| 2026-04-19 01:58 | 37.51976 | -78.72466 | 10938 ft | 210 kts | 33° |
| 2026-04-19 01:59 | 37.53125 | -78.71333 | 10934 ft | 210 kts | 33° |
| 2026-04-19 01:59 | 37.54273 | -78.70201 | 10936 ft | 209 kts | 33° |
| 2026-04-19 01:59 | 37.55420 | -78.69071 | 10932 ft | 209 kts | 33° |
| 2026-04-19 01:59 | 37.56565 | -78.67940 | 10932 ft | 209 kts | 33° |
| 2026-04-19 02:00 | 37.57707 | -78.66812 | 10926 ft | 208 kts | 32° |
| 2026-04-19 02:00 | 37.58848 | -78.65688 | 10925 ft | 208 kts | 32° |
| 2026-04-19 02:00 | 37.59987 | -78.64562 | 10926 ft | 208 kts | 32° |
| 2026-04-19 02:00 | 37.61108 | -78.63453 | 10926 ft | 208 kts | 32° |
| 2026-04-19 02:01 | 37.62245 | -78.62330 | 10924 ft | 208 kts | 32° |
| 2026-04-19 02:01 | 37.63382 | -78.61206 | 10924 ft | 208 kts | 32° |
| 2026-04-19 02:01 | 37.64518 | -78.60081 | 10926 ft | 208 kts | 32° |
| 2026-04-19 02:01 | 37.65659 | -78.58953 | 10923 ft | 209 kts | 32° |
| 2026-04-19 02:02 | 37.66803 | -78.57820 | 10924 ft | 209 kts | 32° |
| 2026-04-19 02:02 | 37.67944 | -78.56689 | 10920 ft | 209 kts | 32° |
| 2026-04-19 02:02 | 37.69089 | -78.55555 | 10920 ft | 209 kts | 32° |
| 2026-04-19 02:02 | 37.70235 | -78.54419 | 10920 ft | 210 kts | 32° |
| 2026-04-19 02:03 | 37.71382 | -78.53281 | 10919 ft | 210 kts | 32° |
| 2026-04-19 02:03 | 37.72526 | -78.52146 | 10912 ft | 210 kts | 32° |
| 2026-04-19 02:03 | 37.73672 | -78.51008 | 10913 ft | 209 kts | 32° |
| 2026-04-19 02:03 | 37.74818 | -78.49870 | 10911 ft | 210 kts | 32° |
| 2026-04-19 02:04 | 37.75949 | -78.48747 | 10914 ft | 210 kts | 32° |
| 2026-04-19 02:04 | 37.77094 | -78.47608 | 10910 ft | 209 kts | 32° |
| 2026-04-19 02:04 | 37.78237 | -78.46474 | 10911 ft | 209 kts | 32° |
| 2026-04-19 02:04 | 37.79380 | -78.45336 | 10912 ft | 209 kts | 32° |
| 2026-04-19 02:05 | 37.80524 | -78.44198 | 10909 ft | 209 kts | 32° |
| 2026-04-19 02:05 | 37.81665 | -78.43063 | 10907 ft | 209 kts | 32° |
| 2026-04-19 02:05 | 37.82804 | -78.41928 | 10907 ft | 208 kts | 32° |
| 2026-04-19 02:05 | 37.83943 | -78.40794 | 10907 ft | 209 kts | 32° |
| 2026-04-19 02:06 | 37.85084 | -78.39657 | 10906 ft | 209 kts | 32° |
| 2026-04-19 02:06 | 37.86222 | -78.38522 | 10905 ft | 209 kts | 32° |
| 2026-04-19 02:06 | 37.87361 | -78.37385 | 10905 ft | 209 kts | 32° |
| 2026-04-19 02:06 | 37.88487 | -78.36263 | 10904 ft | 209 kts | 32° |
| 2026-04-19 02:07 | 37.89626 | -78.35126 | 10903 ft | 208 kts | 32° |
| 2026-04-19 02:07 | 37.90765 | -78.33988 | 10903 ft | 209 kts | 32° |
| 2026-04-19 02:07 | 37.91906 | -78.32849 | 10902 ft | 209 kts | 33° |
| 2026-04-19 02:07 | 37.93041 | -78.31714 | 10901 ft | 208 kts | 32° |
| 2026-04-19 02:08 | 37.94177 | -78.30578 | 10904 ft | 208 kts | 32° |
| 2026-04-19 02:08 | 37.95315 | -78.29441 | 10904 ft | 209 kts | 32° |
| 2026-04-19 02:08 | 37.96456 | -78.28299 | 10903 ft | 209 kts | 33° |
| 2026-04-19 02:08 | 37.97595 | -78.27158 | 10921 ft | 209 kts | 33° |
| 2026-04-19 02:09 | 37.98684 | -78.25964 | 10924 ft | 209 kts | 35° |
| 2026-04-19 02:09 | 37.99786 | -78.24773 | 10974 ft | 207 kts | 33° |
| 2026-04-19 02:09 | 38.00928 | -78.23679 | 11020 ft | 205 kts | 31° |
| 2026-04-19 02:09 | 38.02062 | -78.22582 | 11069 ft | 205 kts | 32° |
| 2026-04-19 02:10 | 38.03197 | -78.21454 | 10987 ft | 211 kts | 33° |
| 2026-04-19 02:10 | 38.04362 | -78.20278 | 10871 ft | 216 kts | 33° |
| 2026-04-19 02:10 | 38.05548 | -78.19085 | 10765 ft | 219 kts | 33° |
| 2026-04-19 02:10 | 38.06741 | -78.17888 | 10651 ft | 220 kts | 33° |
| 2026-04-19 02:11 | 38.07942 | -78.16685 | 10538 ft | 220 kts | 33° |
| 2026-04-19 02:11 | 38.09143 | -78.15481 | 10420 ft | 220 kts | 33° |
| 2026-04-19 02:11 | 38.10344 | -78.14274 | 10301 ft | 220 kts | 33° |
| 2026-04-19 02:11 | 38.11528 | -78.13086 | 10187 ft | 220 kts | 33° |
| 2026-04-19 02:12 | 38.12727 | -78.11881 | 10070 ft | 220 kts | 33° |
| 2026-04-19 02:12 | 38.13924 | -78.10677 | 9954 ft | 219 kts | 33° |
| 2026-04-19 02:12 | 38.15120 | -78.09475 | 9838 ft | 219 kts | 33° |
| 2026-04-19 02:12 | 38.16313 | -78.08276 | 9715 ft | 219 kts | 33° |
| 2026-04-19 02:13 | 38.17505 | -78.07075 | 9589 ft | 218 kts | 33° |
| 2026-04-19 02:13 | 38.18692 | -78.05880 | 9460 ft | 218 kts | 33° |
| 2026-04-19 02:13 | 38.19878 | -78.04684 | 9331 ft | 218 kts | 33° |
| 2026-04-19 02:13 | 38.21065 | -78.03488 | 9202 ft | 217 kts | 33° |
| 2026-04-19 02:14 | 38.22251 | -78.02292 | 9076 ft | 218 kts | 33° |
| 2026-04-19 02:14 | 38.23422 | -78.01112 | 8950 ft | 218 kts | 34° |
| 2026-04-19 02:14 | 38.24634 | -77.99977 | 8822 ft | 214 kts | 22° |
| 2026-04-19 02:14 | 38.25998 | -77.99299 | 8654 ft | 205 kts | 12° |
| 2026-04-19 02:15 | 38.27323 | -77.98742 | 8468 ft | 197 kts | 12° |
| 2026-04-19 02:15 | 38.28594 | -77.98104 | 8299 ft | 195 kts | 17° |
| 2026-04-19 02:15 | 38.29833 | -77.97404 | 8121 ft | 194 kts | 18° |
| 2026-04-19 02:15 | 38.31069 | -77.96706 | 7946 ft | 196 kts | 18° |
| 2026-04-19 02:16 | 38.32331 | -77.96000 | 7780 ft | 200 kts | 18° |
| 2026-04-19 02:16 | 38.33606 | -77.95286 | 7603 ft | 201 kts | 17° |
| 2026-04-19 02:16 | 38.34897 | -77.94566 | 7433 ft | 203 kts | 17° |
| 2026-04-19 02:16 | 38.36196 | -77.93840 | 7263 ft | 204 kts | 18° |
| 2026-04-19 02:17 | 38.37499 | -77.93109 | 7095 ft | 205 kts | 18° |
| 2026-04-19 02:17 | 38.38808 | -77.92377 | 6938 ft | 206 kts | 18° |
| 2026-04-19 02:17 | 38.40111 | -77.91648 | 6777 ft | 208 kts | 18° |
| 2026-04-19 02:17 | 38.41434 | -77.90906 | 6613 ft | 208 kts | 18° |
| 2026-04-19 02:18 | 38.42755 | -77.90167 | 6455 ft | 208 kts | 19° |
| 2026-04-19 02:18 | 38.44078 | -77.89424 | 6292 ft | 208 kts | 19° |
| 2026-04-19 02:18 | 38.45404 | -77.88680 | 6118 ft | 208 kts | 19° |
| 2026-04-19 02:18 | 38.46730 | -77.87937 | 5945 ft | 208 kts | 19° |
| 2026-04-19 02:19 | 38.48052 | -77.87194 | 5770 ft | 208 kts | 19° |
| 2026-04-19 02:19 | 38.49377 | -77.86450 | 5602 ft | 208 kts | 19° |
| 2026-04-19 02:19 | 38.50713 | -77.85701 | 5434 ft | 210 kts | 19° |
| 2026-04-19 02:20 | 38.53391 | -77.84195 | 5095 ft | 211 kts | 19° |
| 2026-04-19 02:20 | 38.54739 | -77.83437 | 4925 ft | 213 kts | 20° |
| 2026-04-19 02:20 | 38.56077 | -77.82685 | 4762 ft | 213 kts | 20° |
| 2026-04-19 02:20 | 38.57438 | -77.81920 | 4594 ft | 214 kts | 20° |
| 2026-04-19 02:21 | 38.58802 | -77.81153 | 4429 ft | 214 kts | 20° |
| 2026-04-19 02:21 | 38.60162 | -77.80387 | 4255 ft | 213 kts | 21° |
| 2026-04-19 02:21 | 38.61518 | -77.79621 | 4085 ft | 213 kts | 21° |
| 2026-04-19 02:21 | 38.62879 | -77.78856 | 3905 ft | 213 kts | 21° |
| 2026-04-19 02:22 | 38.64234 | -77.78090 | 3731 ft | 213 kts | 21° |
| 2026-04-19 02:22 | 38.65592 | -77.77323 | 3564 ft | 214 kts | 21° |
| 2026-04-19 02:22 | 38.66947 | -77.76559 | 3394 ft | 213 kts | 22° |
| 2026-04-19 02:22 | 38.68303 | -77.75793 | 3224 ft | 213 kts | 22° |
| 2026-04-19 02:23 | 38.69646 | -77.75036 | 3060 ft | 214 kts | 22° |
| 2026-04-19 02:23 | 38.70994 | -77.74272 | 3008 ft | 208 kts | 23° |
| 2026-04-19 02:23 | 38.72294 | -77.73539 | 3003 ft | 201 kts | 23° |
| 2026-04-19 02:23 | 38.73560 | -77.72820 | 2997 ft | 197 kts | 23° |
| 2026-04-19 02:24 | 38.74807 | -77.72112 | 2993 ft | 195 kts | 22° |
| 2026-04-19 02:24 | 38.76045 | -77.71414 | 2993 ft | 194 kts | 23° |
| 2026-04-19 02:24 | 38.77278 | -77.70715 | 2994 ft | 193 kts | 23° |
| 2026-04-19 02:24 | 38.78509 | -77.70017 | 2994 ft | 194 kts | 22° |
| 2026-04-19 02:25 | 38.79727 | -77.69328 | 2990 ft | 193 kts | 23° |
| 2026-04-19 02:25 | 38.80950 | -77.68634 | 2989 ft | 193 kts | 23° |
| 2026-04-19 02:25 | 38.82174 | -77.67938 | 2992 ft | 191 kts | 22° |
| 2026-04-19 02:25 | 38.83388 | -77.67251 | 2991 ft | 191 kts | 24° |
| 2026-04-19 02:26 | 38.84451 | -77.66287 | 2991 ft | 181 kts | 51° |
| 2026-04-19 02:26 | 38.85084 | -77.65006 | 2992 ft | 161 kts | 73° |
| 2026-04-19 02:26 | 38.85330 | -77.63661 | 2909 ft | 153 kts | 94° |
| 2026-04-19 02:26 | 38.85232 | -77.62334 | 2779 ft | 147 kts | 114° |
| 2026-04-19 02:27 | 38.84794 | -77.61219 | 2650 ft | 135 kts | 140° |
| 2026-04-19 02:27 | 38.84180 | -77.60319 | 2532 ft | 133 kts | 140° |
| 2026-04-19 02:27 | 38.83451 | -77.59664 | 2414 ft | 129 kts | 152° |
| 2026-04-19 02:27 | 38.82689 | -77.59054 | 2292 ft | 128 kts | 157° |
| 2026-04-19 02:28 | 38.81959 | -77.58500 | 2207 ft | 114 kts | 160° |
| 2026-04-19 02:28 | 38.81298 | -77.58024 | 2110 ft | 106 kts | 160° |
| 2026-04-19 02:28 | 38.80660 | -77.57567 | 1976 ft | 104 kts | 159° |
| 2026-04-19 02:28 | 38.80062 | -77.57123 | 1856 ft | 95 kts | 159° |
| 2026-04-19 02:29 | 38.79501 | -77.56719 | 1731 ft | 90 kts | 160° |
| 2026-04-19 02:29 | 38.78966 | -77.56332 | 1621 ft | 86 kts | 160° |
| 2026-04-19 02:29 | 38.78440 | -77.55963 | 1502 ft | 87 kts | 156° |
| 2026-04-19 02:29 | 38.77921 | -77.55581 | 1387 ft | 85 kts | 157° |
| 2026-04-19 02:30 | 38.77401 | -77.55209 | 1271 ft | 87 kts | 155° |
| 2026-04-19 02:30 | 38.76841 | -77.54804 | 1154 ft | 98 kts | 155° |
| 2026-04-19 02:30 | 38.76292 | -77.54410 | 1037 ft | 83 kts | 152° |
| 2026-04-19 02:30 | 38.75811 | -77.54060 | 934 ft | 76 kts | 151° |
| 2026-04-19 02:31 | 38.75355 | -77.53738 | 831 ft | 75 kts | 147° |
| 2026-04-19 02:31 | 38.74903 | -77.53391 | 733 ft | 76 kts | 149° |
| 2026-04-19 02:31 | 38.74443 | -77.53058 | 632 ft | 75 kts | 148° |
| 2026-04-19 02:31 | 38.73986 | -77.52731 | 523 ft | 75 kts | 149° |
| 2026-04-19 02:32 | 38.73524 | -77.52409 | 422 ft | 77 kts | 149° |
| 2026-04-19 02:32 | 38.73060 | -77.52076 | 300 ft | 76 kts | 150° |
| 2026-04-19 02:32 | 38.72611 | -77.51762 | 206 ft | 66 kts | 148° |
| 2026-04-19 02:32 | 38.72276 | -77.51520 | 181 ft | 44 kts | 151° |
| 2026-04-19 02:33 | 38.72041 | -77.51353 | 191 ft | 35 kts | 152° |
| 2026-04-19 02:33 | 38.71874 | -77.51198 | 189 ft | 24 kts | 124° |
| 2026-04-19 02:33 | 38.71833 | -77.51056 | 189 ft | 5 kts | 31° |
| 2026-04-19 02:33 | 38.71843 | -77.51056 | 191 ft | 0 kts | 344° |
| 2026-04-19 02:34 | 38.71861 | -77.51065 | 189 ft | 10 kts | 333° |
| 2026-04-19 02:34 | 38.71969 | -77.51141 | 186 ft | 24 kts | 331° |
| 2026-04-19 02:34 | 38.72120 | -77.51250 | 183 ft | 24 kts | 330° |
| 2026-04-19 02:35 | 38.72268 | -77.51356 | 180 ft | 20 kts | 333° |
| 2026-04-19 02:35 | 38.72397 | -77.51452 | 181 ft | 24 kts | 332° |
| 2026-04-19 02:35 | 38.72545 | -77.51554 | 180 ft | 19 kts | 328° |
| 2026-04-19 02:35 | 38.72624 | -77.51534 | 182 ft | 17 kts | 69° |
| 2026-04-19 02:36 | 38.72685 | -77.51402 | 195 ft | 15 kts | 58° |
| 2026-04-19 02:36 | 38.72735 | -77.51359 | 200 ft | 0 kts | 330° |